Date,TemperatureHighF,TemperatureAvgF,TemperatureLowF,DewpointHighF,DewpointAvgF,DewpointLowF,HumidityHigh,HumidityAvg,HumidityLow,PressureMaxIn,PressureMinIn,WindSpeedMaxMPH,WindSpeedAvgMPH,GustSpeedMaxMPH,PrecipitationSumIn
2014-1-1,21,15,10,11,8,3,89,73,54,30.45,30.28,8,2,14,0.00
2014-1-2,13,8,3,10,6,0,89,88,87,30.33,30.04,12,4,17,0.00
2014-1-3,8,3,-6,2,-2,-9,91,83,70,30.47,30.13,7,1,10,0.00
2014-1-4,37,25,8,22,9,1,72,51,32,30.33,30.02,12,4,21,0.00
2014-1-5,38,34,32,31,24,17,95,69,43,30.13,29.41,5,0,11,0.25
2014-1-6,45,21,0,43,16,-7,97,83,68,29.91,29.23,19,7,29,0.27
2014-1-7,7,2,-3,4,-3,-13,88,80,60,30.34,29.92,18,8,26,0.00
2014-1-8,18,12,4,15,8,2,90,85,74,30.50,30.34,7,2,11,0.00
2014-1-9,24,11,-4,17,7,-6,94,83,57,30.69,30.41,5,0,10,0.00
2014-1-10,40,32,21,37,30,18,97,91,81,30.41,29.87,4,0,8,0.13
2014-1-11,50,43,34,48,41,32,97,92,86,29.86,29.22,13,3,25,0.43
2014-1-12,34,32,30,31,29,27,93,88,79,29.98,29.53,11,4,19,0.00
2014-1-13,51,43,33,42,34,28,93,72,49,29.90,29.64,16,3,16,0.22
2014-1-14,44,35,25,43,32,24,97,89,68,29.83,29.64,8,2,12,0.06
2014-1-15,35,30,26,32,23,18,90,77,63,30.01,29.76,15,5,23,0.00
2014-1-16,32,27,24,23,19,15,90,73,52,29.98,29.84,8,1,15,0.00
2014-1-17,36,30,23,27,24,20,92,78,61,29.85,29.77,10,2,23,0.00
2014-1-18,29,20,18,27,16,12,92,86,77,29.95,29.84,16,5,19,0.00
2014-1-19,28,22,16,24,18,9,91,83,74,29.87,29.52,17,5,34,0.00
2014-1-20,30,21,10,27,16,1,90,80,65,30.07,29.53,14,3,26,0.00
2014-1-21,10,5,-1,5,0,-4,90,81,71,30.19,30.06,6,1,9,0.00
2014-1-22,9,4,0,0,-2,-4,86,77,59,30.18,30.07,4,1,10,0.00
2014-1-23,13,7,0,7,3,-4,92,83,68,30.43,30.09,8,1,12,0.00
2014-1-24,17,9,0,7,1,-6,86,71,53,30.43,29.71,21,5,26,0.00
2014-1-25,24,17,7,22,13,-1,92,83,66,29.70,29.26,13,4,24,0.00
2014-1-26,28,12,3,22,6,-5,89,75,63,29.80,29.46,9,3,15,0.00
2014-1-27,29,14,2,26,6,-7,94,71,55,30.20,29.33,18,5,22,0.00
2014-1-28,7,2,-2,0,-5,-10,81,72,63,30.40,30.21,16,5,22,0.00
2014-1-29,13,7,0,8,1,-8,88,77,64,30.30,30.11,18,6,26,0.00
2014-1-30,32,21,11,13,4,2,72,50,29,30.31,29.86,11,3,18,0.00
2014-1-31,33,31,28,27,22,15,90,72,55,30.19,29.92,13,4,26,0.00